Time;durP1;ratioP1;P1;durP2;ratioP2;P2;SDS_P1;SDS_P2;PMS_P1;PMS_P2;Temp;Humidity;BMP_temperature;BMP_pressure;BME280_temperature;BME280_humidity;BME280_pressure;Samples;Min_cycle;Max_cycle;Signal;HPM_P1;HPM_P2
2022/01/11 00:02:16;;;;;;;34.50;19.42;;;;;;;1.36;100.00;99736.13;10343295;28;20203;-78
2022/01/11 00:07:19;;;;;;;33.13;17.67;;;;;;;1.37;100.00;99735.09;10357085;28;20505;-78
2022/01/11 00:12:19;;;;;;;29.10;16.80;;;;;;;1.47;100.00;99738.03;10325992;28;20054;-78
2022/01/11 00:17:20;;;;;;;29.35;16.27;;;;;;;1.45;100.00;99740.06;10336323;28;20409;-78
2022/01/11 00:22:27;;;;;;;26.88;15.10;;;;;;;1.50;100.00;99736.75;10338634;28;20080;-79
2022/01/11 00:27:27;;;;;;;34.42;15.50;;;;;;;1.48;100.00;99739.63;10331590;28;20054;-79
2022/01/11 00:32:38;;;;;;;29.85;17.10;;;;;;;1.55;100.00;99745.59;10345740;28;20051;-80
2022/01/11 00:37:39;;;;;;;29.85;16.58;;;;;;;1.57;100.00;99753.34;10348461;28;20160;-81
2022/01/11 00:42:41;;;;;;;26.45;16.58;;;;;;;1.46;100.00;99762.84;10338279;28;20532;-80
2022/01/11 00:47:43;;;;;;;31.13;16.92;;;;;;;1.54;100.00;99761.72;10312404;28;20078;-80
2022/01/11 00:52:43;;;;;;;31.08;17.30;;;;;;;1.52;100.00;99775.16;10346579;28;20061;-82
2022/01/11 00:57:45;;;;;;;29.15;15.88;;;;;;;1.48;100.00;99773.22;10335337;28;20042;-80
2022/01/11 01:02:46;;;;;;;29.45;17.00;;;;;;;1.59;100.00;99780.38;10339734;28;20046;-83
2022/01/11 01:07:47;;;;;;;31.00;16.77;;;;;;;1.44;100.00;99775.50;10334733;28;20497;-82
2022/01/11 01:12:48;;;;;;;30.25;17.25;;;;;;;1.40;100.00;99769.06;10332577;28;20059;-80
2022/01/11 01:17:56;;;;;;;31.43;16.47;;;;;;;1.34;100.00;99778.69;10298897;28;20058;-80
2022/01/11 01:22:58;;;;;;;31.80;16.50;;;;;;;1.42;100.00;99775.72;10343334;28;20076;-82
2022/01/11 01:27:59;;;;;;;33.42;18.35;;;;;;;1.46;100.00;99776.06;10317126;28;20050;-81
2022/01/11 01:33:04;;;;;;;33.92;18.42;;;;;;;1.35;100.00;99775.00;10343650;28;20133;-81
2022/01/11 01:38:10;;;;;;;33.10;18.75;;;;;;;1.53;100.00;99781.25;10345833;28;20050;-79
2022/01/11 01:43:13;;;;;;;35.03;17.80;;;;;;;1.49;100.00;99782.75;10323440;28;20049;-78
2022/01/11 01:48:15;;;;;;;31.67;19.08;;;;;;;1.42;100.00;99788.16;10338644;28;20058;-78
2022/01/11 01:53:16;;;;;;;32.53;18.02;;;;;;;1.49;100.00;99796.00;10331455;28;20513;-77
2022/01/11 01:58:17;;;;;;;38.08;19.17;;;;;;;1.57;100.00;99795.66;10347350;28;20058;-78
2022/01/11 02:03:25;;;;;;;31.38;17.20;;;;;;;1.48;100.00;99797.84;10345015;28;20055;-77
2022/01/11 02:08:27;;;;;;;32.50;17.95;;;;;;;1.37;100.00;99796.78;10347484;28;20049;-76
2022/01/11 02:13:28;;;;;;;33.83;18.33;;;;;;;1.30;100.00;99811.91;10316213;28;20050;-78
2022/01/11 02:18:29;;;;;;;36.00;19.08;;;;;;;1.37;100.00;99801.22;10337703;28;20068;-78
2022/01/11 02:23:39;;;;;;;37.60;20.20;;;;;;;1.31;100.00;99802.16;10330714;28;20061;-77
2022/01/11 02:28:40;;;;;;;38.42;20.23;;;;;;;1.28;100.00;99805.22;10304273;28;20058;-77
2022/01/11 02:33:49;;;;;;;37.17;20.90;;;;;;;1.27;100.00;99807.06;10319217;28;20047;-76
2022/01/11 02:39:12;;;;;;;42.47;20.10;;;;;;;1.19;100.00;99796.81;10351107;28;20148;-80
2022/01/11 02:44:13;;;;;;;38.53;20.17;;;;;;;1.27;100.00;99801.78;10356209;28;20054;-80
2022/01/11 02:49:15;;;;;;;36.60;20.25;;;;;;;1.24;100.00;99810.16;10354164;28;20102;-79
2022/01/11 02:54:22;;;;;;;35.72;20.08;;;;;;;1.29;100.00;99799.72;10255381;28;1127991;-80
2022/01/11 02:59:29;;;;;;;37.28;20.35;;;;;;;1.28;100.00;99806.06;10368139;28;20057;-81
2022/01/11 03:04:33;;;;;;;38.65;20.13;;;;;;;1.20;100.00;99803.72;10328524;28;20054;-78
2022/01/11 03:09:57;;;;;;;37.10;18.75;;;;;;;1.26;100.00;99796.72;10326142;28;20077;-79
2022/01/11 03:14:59;;;;;;;37.15;18.55;;;;;;;1.25;100.00;99795.91;10339667;28;20054;-78
2022/01/11 03:20:01;;;;;;;30.17;18.08;;;;;;;1.31;100.00;99797.66;10323557;28;20069;-77
2022/01/11 03:25:05;;;;;;;32.00;17.60;;;;;;;1.42;100.00;99796.06;10315136;28;20517;-79
2022/01/11 03:30:09;;;;;;;31.38;16.55;;;;;;;1.42;100.00;99799.53;10346949;28;20060;-78
2022/01/11 03:35:13;;;;;;;29.95;16.55;;;;;;;1.43;100.00;99814.38;10318274;28;20043;-78
2022/01/11 03:40:17;;;;;;;;;;;;;;;1.35;100.00;99814.69;10327526;28;20058;-78
2022/01/11 03:45:22;;;;;;;30.90;16.48;;;;;;;1.37;100.00;99817.94;10325483;28;19936;-76
2022/01/11 03:50:26;;;;;;;29.15;16.20;;;;;;;1.31;100.00;99816.19;10314508;28;20053;-77
2022/01/11 04:00:50;;;;;;;29.98;16.55;;;;;;;1.33;100.00;99822.03;10326585;28;20044;-78
2022/01/11 04:05:51;;;;;;;34.97;16.60;;;;;;;1.35;100.00;99817.31;10327651;28;20046;-77
2022/01/11 04:10:51;;;;;;;27.10;15.90;;;;;;;1.33;100.00;99818.59;10321912;28;20764;-79
2022/01/11 04:15:53;;;;;;;24.98;14.70;;;;;;;1.43;100.00;99822.31;10343624;28;20388;-78
2022/01/11 04:20:54;;;;;;;29.42;16.20;;;;;;;1.37;100.00;99825.88;10332238;28;20077;-78
2022/01/11 04:25:55;;;;;;;28.77;15.13;;;;;;;1.43;100.00;99824.16;10313083;28;20397;-80
2022/01/11 04:30:58;;;;;;;25.73;14.82;;;;;;;1.51;100.00;99841.53;10345858;28;20485;-78
2022/01/11 04:36:01;;;;;;;31.75;16.88;;;;;;;1.46;100.00;99839.56;10356299;28;20089;-78
2022/01/11 04:41:02;;;;;;;33.10;18.08;;;;;;;1.43;100.00;99840.81;10328087;28;20058;-78
2022/01/11 04:46:09;;;;;;;32.58;18.90;;;;;;;1.41;100.00;99850.81;10352789;28;20648;-78
2022/01/11 04:51:11;;;;;;;35.40;20.60;;;;;;;1.35;100.00;99846.41;10321638;28;20193;-77
2022/01/11 04:56:13;;;;;;;34.97;18.92;;;;;;;1.36;100.00;99848.03;10311592;28;20048;-78
2022/01/11 05:01:14;;;;;;;36.72;19.08;;;;;;;1.41;100.00;99857.97;10312290;28;20068;-81
2022/01/11 05:06:18;;;;;;;34.35;18.38;;;;;;;1.42;100.00;99865.66;10340072;28;20092;-79
2022/01/11 05:11:22;;;;;;;33.23;20.10;;;;;;;1.54;100.00;99860.41;10328557;28;20054;-77
2022/01/11 05:16:24;;;;;;;42.03;20.48;;;;;;;1.45;100.00;99871.53;10327823;28;20072;-78
2022/01/11 05:21:26;;;;;;;33.92;18.10;;;;;;;1.59;100.00;99868.50;10347404;28;20054;-79
2022/01/11 05:26:26;;;;;;;30.77;18.23;;;;;;;1.47;100.00;99862.38;10364480;28;20432;-77
2022/01/11 05:31:26;;;;;;;29.35;16.48;;;;;;;1.53;100.00;99872.03;10362385;28;20051;-77
2022/01/11 05:36:28;;;;;;;27.85;15.63;;;;;;;1.55;100.00;99885.03;10329171;28;20069;-77
2022/01/11 05:41:32;;;;;;;24.50;15.10;;;;;;;1.43;100.00;99877.84;10334461;28;20137;-79
2022/01/11 05:46:33;;;;;;;31.25;15.60;;;;;;;1.51;100.00;99883.88;10368403;28;20054;-80
2022/01/11 05:51:36;;;;;;;28.30;15.60;;;;;;;1.50;100.00;99898.13;10331553;28;20046;-79
2022/01/11 05:56:36;;;;;;;30.75;14.25;;;;;;;1.59;100.00;99905.53;10328934;28;20054;-78
2022/01/11 06:01:39;;;;;;;27.90;15.55;;;;;;;1.61;100.00;99913.25;10329469;28;20057;-79
2022/01/11 06:06:40;;;;;;;28.35;15.25;;;;;;;1.59;100.00;99918.78;10319811;28;20054;-81
2022/01/11 06:11:41;;;;;;;28.10;15.93;;;;;;;1.65;100.00;99927.66;10336227;28;20050;-78
2022/01/11 06:16:41;;;;;;;29.27;15.35;;;;;;;1.68;100.00;99935.94;10338786;28;20045;-79
2022/01/11 06:21:43;;;;;;;24.73;14.18;;;;;;;1.68;100.00;99932.50;10364545;28;20057;-77
2022/01/11 06:26:44;;;;;;;25.33;13.52;;;;;;;1.50;100.00;99930.69;10324109;28;20444;-81
2022/01/11 06:31:46;;;;;;;26.63;14.68;;;;;;;1.56;100.00;99929.81;10345244;28;20049;-80
2022/01/11 06:36:47;;;;;;;28.02;15.65;;;;;;;1.64;100.00;99939.25;10379431;28;20204;-79
2022/01/11 06:41:47;;;;;;;30.05;16.60;;;;;;;1.56;100.00;99950.19;10367283;28;20106;-79
2022/01/11 06:46:50;;;;;;;27.57;15.80;;;;;;;1.66;100.00;99956.56;10344738;28;20069;-80
2022/01/11 06:51:53;;;;;;;24.23;13.90;;;;;;;1.66;100.00;99950.44;10349823;28;20049;-79
2022/01/11 06:56:54;;;;;;;29.65;14.93;;;;;;;1.63;100.00;99959.63;10360513;28;20042;-80
2022/01/11 07:01:55;;;;;;;24.27;12.88;;;;;;;1.61;100.00;99966.19;10379672;28;20101;-77
2022/01/11 07:07:10;;;;;;;25.00;12.45;;;;;;;1.60;100.00;99965.38;10374121;28;20053;-78
2022/01/11 07:12:11;;;;;;;24.40;13.95;;;;;;;1.64;100.00;99974.47;10346597;28;20086;-81
2022/01/11 07:17:15;;;;;;;23.95;11.93;;;;;;;1.68;100.00;99977.50;10316596;28;20138;-79
2022/01/11 07:22:16;;;;;;;22.65;12.82;;;;;;;1.64;100.00;99984.25;10331483;28;20489;-80
2022/01/11 07:27:19;;;;;;;23.48;12.82;;;;;;;1.61;100.00;99985.50;10316113;28;20169;-79
2022/01/11 07:32:20;;;;;;;22.20;12.50;;;;;;;1.69;100.00;99998.44;10289765;28;20054;-78
2022/01/11 07:37:20;;;;;;;22.50;13.13;;;;;;;1.66;100.00;100008.69;10304862;28;20090;-78
2022/01/11 07:42:24;;;;;;;26.20;13.38;;;;;;;1.67;100.00;100023.53;10311254;28;20058;-79
2022/01/11 07:47:45;;;;;;;26.15;13.25;;;;;;;1.77;100.00;100018.50;10320678;28;20054;-79
2022/01/11 07:52:48;;;;;;;23.40;12.77;;;;;;;1.84;100.00;100023.72;10332667;28;20055;-79
2022/01/11 07:57:55;;;;;;;23.30;12.93;;;;;;;1.87;100.00;100024.09;10324410;28;20494;-78
2022/01/11 08:03:00;;;;;;;28.27;14.05;;;;;;;1.96;100.00;100027.22;10340510;28;20054;-79
2022/01/11 08:08:13;;;;;;;;;;;;;;;1.85;100.00;100031.44;10275918;28;20058;-78
2022/01/11 08:13:13;;;;;;;20.10;11.48;;;;;;;1.78;100.00;100035.19;10320677;28;19929;-78
2022/01/11 08:18:17;;;;;;;16.45;9.55;;;;;;;1.78;100.00;100041.28;10332212;28;20085;-79
2022/01/11 08:23:20;;;;;;;16.80;9.95;;;;;;;2.00;100.00;100039.78;10328121;28;20086;-80
2022/01/11 08:28:21;;;;;;;17.88;9.73;;;;;;;2.03;100.00;100041.19;10331876;28;20054;-78
2022/01/11 08:33:28;;;;;;;15.68;8.98;;;;;;;2.12;100.00;100023.97;10317103;28;20073;-78
2022/01/11 08:38:29;;;;;;;15.63;7.53;;;;;;;2.29;100.00;100026.81;10308745;28;20065;-79
2022/01/11 08:43:34;;;;;;;9.95;5.72;;;;;;;2.19;100.00;100016.72;10318157;28;20044;-78
2022/01/11 08:48:36;;;;;;;10.93;5.55;;;;;;;2.24;100.00;100008.09;10365676;28;20165;-79
2022/01/11 08:53:47;;;;;;;11.73;6.22;;;;;;;2.24;100.00;100003.63;10348744;28;20058;-82
2022/01/11 08:58:49;;;;;;;11.98;6.65;;;;;;;2.30;100.00;100009.06;10327094;28;20572;-78
2022/01/11 09:04:01;;;;;;;12.70;6.78;;;;;;;2.38;100.00;100019.31;10301809;28;20058;-78
2022/01/11 09:09:06;;;;;;;9.98;6.15;;;;;;;2.34;100.00;100012.84;10311129;28;20061;-79
2022/01/11 09:14:09;;;;;;;9.65;6.15;;;;;;;2.41;100.00;100017.03;10323083;28;20104;-78
2022/01/11 09:19:11;;;;;;;12.07;6.38;;;;;;;2.50;100.00;100017.50;10330916;28;20076;-79
2022/01/11 09:24:19;;;;;;;15.20;8.75;;;;;;;2.62;100.00;100030.78;10316335;28;20421;-80
2022/01/11 09:29:20;;;;;;;12.98;7.63;;;;;;;2.82;100.00;100026.78;10312702;28;20046;-78
2022/01/11 09:34:21;;;;;;;15.75;9.10;;;;;;;2.73;100.00;100030.81;10307412;28;20073;-78
2022/01/11 09:39:25;;;;;;;14.80;9.15;;;;;;;2.83;100.00;100033.72;10323746;28;20080;-79
2022/01/11 09:44:27;;;;;;;13.30;8.85;;;;;;;2.88;100.00;100040.16;10318274;28;20050;-78
2022/01/11 09:49:29;;;;;;;12.93;7.18;;;;;;;3.00;100.00;100023.22;10299558;28;20057;-79
2022/01/11 09:54:31;;;;;;;16.02;6.57;;;;;;;3.11;100.00;100011.03;10315593;28;20069;-79
2022/01/11 09:59:34;;;;;;;4.65;2.83;;;;;;;3.08;100.00;100006.16;10304570;28;20065;-79
2022/01/11 10:04:58;;;;;;;6.85;4.45;;;;;;;3.08;100.00;100014.91;10344261;28;20061;-79
2022/01/11 10:10:12;;;;;;;9.60;5.07;;;;;;;3.21;100.00;100019.19;10313782;28;20466;-78
2022/01/11 10:15:13;;;;;;;21.60;12.82;;;;;;;3.13;100.00;100028.31;10324261;28;20094;-79
2022/01/11 10:20:17;;;;;;;4.13;2.70;;;;;;;3.06;100.00;100027.63;10333898;28;20844;-79
2022/01/11 10:25:45;;;;;;;2.22;1.60;;;;;;;2.99;100.00;100026.91;10352108;28;20046;-78
2022/01/11 10:30:46;;;;;;;1.70;1.13;;;;;;;3.10;100.00;100026.09;10349876;28;20034;-82
2022/01/11 10:35:49;;;;;;;2.30;1.43;;;;;;;2.95;100.00;100020.47;10369231;28;20089;-79
2022/01/11 10:41:01;;;;;;;6.05;3.80;;;;;;;3.03;100.00;100022.78;10325339;28;20490;-79
2022/01/11 10:46:03;;;;;;;3.17;1.55;;;;;;;3.41;100.00;100030.25;10305041;28;20120;-78
2022/01/11 10:51:12;;;;;;;1.60;1.20;;;;;;;3.06;100.00;100024.97;10303062;28;20054;-79
2022/01/11 10:56:12;;;;;;;3.42;2.08;;;;;;;3.36;100.00;100024.81;10311912;28;20112;-79
2022/01/11 11:01:33;;;;;;;2.83;1.30;;;;;;;3.39;100.00;100020.91;10337646;28;20061;-79
2022/01/11 11:06:36;;;;;;;2.55;1.38;;;;;;;3.52;100.00;100023.31;10320973;28;20066;-78
2022/01/11 11:11:39;;;;;;;1.88;1.42;;;;;;;3.42;100.00;100020.44;10307270;28;20062;-78
2022/01/11 11:16:48;;;;;;;1.90;1.38;;;;;;;3.53;100.00;100016.16;10319961;28;20059;-78
2022/01/11 11:21:53;;;;;;;3.95;2.45;;;;;;;3.62;100.00;100017.41;10292327;28;20799;-78
2022/01/11 11:26:54;;;;;;;1.73;1.27;;;;;;;3.58;100.00;100013.63;10328022;28;20076;-79
2022/01/11 11:31:55;;;;;;;2.40;1.58;;;;;;;3.62;100.00;100010.25;10332838;28;20050;-78
2022/01/11 11:37:00;;;;;;;1.88;1.50;;;;;;;3.54;100.00;100005.28;10331491;28;20774;-78
2022/01/11 11:42:01;;;;;;;3.83;2.00;;;;;;;3.66;100.00;100013.25;10303261;28;20061;-78
2022/01/11 11:47:06;;;;;;;3.08;1.77;;;;;;;3.42;100.00;100012.47;10308496;28;20058;-80
2022/01/11 11:52:35;;;;;;;1.75;1.35;;;;;;;3.30;100.00;100015.16;10294525;28;20086;-79
2022/01/11 11:57:42;;;;;;;6.68;3.70;;;;;;;3.61;100.00;100011.28;10334246;28;20553;-77
2022/01/11 12:02:44;;;;;;;4.72;2.63;;;;;;;3.61;100.00;100003.31;10337475;28;20051;-77
2022/01/11 12:07:45;;;;;;;8.50;3.85;;;;;;;3.60;100.00;100015.00;10358975;28;20114;-78
2022/01/11 12:13:02;;;;;;;3.58;1.70;;;;;;;3.58;100.00;100006.47;10340335;28;20061;-80
2022/01/11 12:18:12;;;;;;;3.63;1.73;;;;;;;3.34;100.00;99999.56;10308430;28;20048;-79
2022/01/11 12:23:23;;;;;;;3.05;1.77;;;;;;;3.62;100.00;100002.28;10330565;28;20631;-79
2022/01/11 12:28:24;;;;;;;2.22;1.60;;;;;;;2.97;100.00;100002.47;10326799;28;20055;-80
2022/01/11 12:33:28;;;;;;;2.25;1.35;;;;;;;3.07;100.00;99988.63;10328347;28;20072;-79
2022/01/11 12:38:37;;;;;;;2.80;1.73;;;;;;;3.39;100.00;99994.38;10319634;28;20055;-78
2022/01/11 12:43:48;;;;;;;3.33;1.70;;;;;;;3.26;100.00;99995.41;10303736;28;20132;-79
2022/01/11 12:48:53;;;;;;;2.03;1.30;;;;;;;3.19;100.00;99984.09;10328987;28;20490;-79
2022/01/11 12:54:20;;;;;;;2.47;1.70;;;;;;;3.25;100.00;99990.34;10342886;28;20062;-79
2022/01/11 12:59:24;;;;;;;2.60;1.80;;;;;;;3.32;100.00;99991.84;10278432;28;20158;-79
2022/01/11 13:04:39;;;;;;;6.93;3.05;;;;;;;3.43;100.00;100000.81;10267659;28;20070;-79
2022/01/11 13:09:40;;;;;;;3.40;1.30;;;;;;;3.16;100.00;99983.78;10265752;28;20134;-78
2022/01/11 13:14:42;;;;;;;2.08;1.73;;;;;;;3.05;100.00;99994.16;10294241;28;20076;-79
2022/01/11 13:19:42;;;;;;;3.47;2.03;;;;;;;3.41;100.00;99997.59;10308609;28;20146;-78
2022/01/11 13:24:47;;;;;;;6.63;3.45;;;;;;;3.49;100.00;99997.25;10297389;28;20149;-78
2022/01/11 13:29:48;;;;;;;3.67;2.30;;;;;;;3.42;100.00;99999.22;10298232;28;20139;-79
2022/01/11 13:34:48;;;;;;;2.78;1.90;;;;;;;3.43;100.00;99993.66;10276108;28;20143;-79
2022/01/11 13:39:54;;;;;;;4.15;2.00;;;;;;;3.29;100.00;99994.13;10259933;28;20076;-79
2022/01/11 13:44:55;;;;;;;3.15;2.50;;;;;;;3.32;100.00;99991.84;10301339;28;20102;-78
2022/01/11 13:49:58;;;;;;;4.40;2.28;;;;;;;3.25;100.00;99995.66;10334286;28;20111;-79
2022/01/11 13:54:59;;;;;;;3.42;2.58;;;;;;;3.13;100.00;100003.63;10338896;28;20081;-78
2022/01/11 14:00:13;;;;;;;3.20;2.15;;;;;;;3.09;100.00;100005.13;10342071;28;20101;-79
2022/01/11 14:05:19;;;;;;;4.45;2.50;;;;;;;2.89;100.00;100007.31;10300542;28;20073;-79
2022/01/11 14:10:28;;;;;;;3.70;2.53;;;;;;;3.03;100.00;100017.47;10321664;28;20088;-78
2022/01/11 14:15:34;;;;;;;4.10;2.70;;;;;;;2.93;100.00;100006.63;10317767;28;20081;-79
2022/01/11 14:20:37;;;;;;;3.65;2.15;;;;;;;2.93;100.00;100014.59;10328151;28;20100;-80
2022/01/11 14:25:49;;;;;;;3.42;2.20;;;;;;;2.93;100.00;100011.94;10311020;28;20054;-79
2022/01/11 14:30:56;;;;;;;4.40;1.95;;;;;;;2.97;100.00;100010.44;10304231;28;20374;-79
2022/01/11 14:36:01;;;;;;;3.38;2.20;;;;;;;2.85;100.00;100014.94;10301544;28;20042;-79
2022/01/11 14:41:05;;;;;;;3.75;2.22;;;;;;;2.71;100.00;100021.47;10333968;28;20081;-78
2022/01/11 14:46:18;;;;;;;2.53;2.03;;;;;;;2.74;100.00;100024.50;10312775;28;20065;-78
2022/01/11 14:51:23;;;;;;;2.80;2.25;;;;;;;2.65;100.00;100027.66;10300829;28;20588;-78
2022/01/11 14:56:27;;;;;;;5.15;2.83;;;;;;;2.62;100.00;100026.28;10347335;28;20046;-79
2022/01/11 15:01:33;;;;;;;3.83;2.65;;;;;;;2.64;100.00;100028.72;10380114;28;20052;-78
2022/01/11 15:06:37;;;;;;;2.55;1.83;;;;;;;2.60;100.00;100024.91;10349291;28;20088;-79
2022/01/11 15:11:41;;;;;;;3.20;2.00;;;;;;;2.49;100.00;100022.00;10317334;28;20169;-80
2022/01/11 15:16:44;;;;;;;3.47;2.25;;;;;;;2.53;100.00;100025.81;10333778;28;20066;-80
2022/01/11 15:21:49;;;;;;;3.95;2.67;;;;;;;2.50;100.00;100042.16;10327254;28;20050;-80
2022/01/11 15:26:50;;;;;;;4.72;2.13;;;;;;;2.26;100.00;100040.47;10311392;28;20049;-81
2022/01/11 15:31:52;;;;;;;5.75;2.53;;;;;;;2.21;100.00;100056.25;10340613;28;20078;-80
2022/01/11 15:36:54;;;;;;;3.40;2.50;;;;;;;2.17;100.00;100061.16;10327099;28;20371;-79
2022/01/11 15:41:58;;;;;;;5.00;2.90;;;;;;;2.13;100.00;100067.16;10329845;28;20050;-80
2022/01/11 15:47:01;;;;;;;4.93;3.08;;;;;;;2.11;100.00;100067.38;10339394;28;20121;-78
2022/01/11 15:52:01;;;;;;;3.50;2.30;;;;;;;2.09;100.00;100068.63;10339138;28;20117;-79
2022/01/11 15:57:03;;;;;;;4.65;2.22;;;;;;;1.97;100.00;100061.44;10322900;28;20097;-79
2022/01/11 16:02:06;;;;;;;2.77;2.07;;;;;;;1.84;100.00;100071.38;10282626;28;20047;-80
2022/01/11 16:07:09;;;;;;;4.05;2.25;;;;;;;1.83;100.00;100075.03;10329233;28;20141;-78
2022/01/11 16:12:09;;;;;;;3.63;2.60;;;;;;;1.83;100.00;100080.31;10350937;28;20733;-78
2022/01/11 16:17:12;;;;;;;4.43;2.53;;;;;;;1.70;100.00;100081.28;10308292;28;20290;-79
2022/01/11 16:22:13;;;;;;;3.97;2.20;;;;;;;1.61;100.00;100083.41;10322136;28;20061;-77
2022/01/11 16:27:13;;;;;;;4.85;2.40;;;;;;;1.59;100.00;100095.25;10321643;28;20485;-78
2022/01/11 16:32:15;;;;;;;4.32;2.10;;;;;;;1.48;100.00;100091.50;10353850;28;20058;-78
2022/01/11 16:37:19;;;;;;;3.75;2.60;;;;;;;1.39;100.00;100084.88;10349553;28;20129;-78
2022/01/11 16:42:38;;;;;;;4.10;2.15;;;;;;;1.28;100.00;100085.56;10349813;28;20050;-77
2022/01/11 16:47:42;;;;;;;3.15;2.13;;;;;;;0.93;100.00;100078.16;10364891;28;20077;-77
2022/01/11 16:52:42;;;;;;;5.75;2.90;;;;;;;0.70;100.00;100083.19;10332722;28;20062;-78
2022/01/11 16:57:44;;;;;;;6.05;3.10;;;;;;;0.55;100.00;100096.72;10348866;28;20054;-81
2022/01/11 17:02:50;;;;;;;3.78;2.58;;;;;;;0.37;100.00;100109.84;10364258;28;20046;-79
2022/01/11 17:07:51;;;;;;;4.50;3.00;;;;;;;0.22;100.00;100118.81;10365728;28;20105;-79
2022/01/11 17:12:54;;;;;;;5.15;3.22;;;;;;;0.26;100.00;100120.00;10376557;28;20046;-79
2022/01/11 17:17:55;;;;;;;;;;;;;;;0.26;100.00;100127.94;10399867;28;20034;-80
2022/01/11 17:22:57;;;;;;;6.32;4.28;;;;;;;0.25;100.00;100136.06;10341271;28;19932;-78
2022/01/11 17:27:57;;;;;;;7.78;5.38;;;;;;;0.27;100.00;100141.94;10345287;28;20421;-77
2022/01/11 17:33:01;;;;;;;7.57;5.53;;;;;;;0.33;100.00;100148.22;10344951;28;20452;-80
2022/01/11 17:38:01;;;;;;;;;;;;;;;0.40;100.00;100141.91;10354264;28;20046;-79
2022/01/11 17:43:02;;;;;;;8.17;5.93;;;;;;;0.40;100.00;100143.75;10332694;28;20202;-79
2022/01/11 17:48:05;;;;;;;9.73;6.40;;;;;;;0.38;100.00;100143.16;10330446;28;20296;-80
2022/01/11 17:53:10;;;;;;;8.00;5.10;;;;;;;0.47;100.00;100147.16;10353157;28;20054;-80
2022/01/11 17:58:14;;;;;;;7.18;4.72;;;;;;;0.61;100.00;100161.91;10357388;28;20054;-79
2022/01/11 18:03:15;;;;;;;7.35;4.47;;;;;;;0.62;100.00;100166.16;10351813;28;20057;-78
2022/01/11 18:08:16;;;;;;;8.13;5.05;;;;;;;0.61;100.00;100159.25;10341004;28;20105;-77
2022/01/11 18:13:27;;;;;;;7.07;4.40;;;;;;;0.52;100.00;100163.19;10330432;28;20120;-80
2022/01/11 18:18:28;;;;;;;7.85;4.90;;;;;;;0.46;100.00;100166.69;10357653;28;20113;-79
2022/01/11 18:23:34;;;;;;;6.95;4.70;;;;;;;0.37;100.00;100174.03;10336776;28;20050;-78
2022/01/11 18:28:38;;;;;;;7.22;5.05;;;;;;;0.45;100.00;100173.75;10364469;28;20065;-79
2022/01/11 18:33:39;;;;;;;7.47;4.78;;;;;;;0.35;100.00;100181.31;10372810;28;20678;-80
2022/01/11 18:38:39;;;;;;;6.03;4.25;;;;;;;0.22;100.00;100173.47;10372907;28;20060;-82
2022/01/11 18:43:41;;;;;;;7.90;4.70;;;;;;;0.12;100.00;100176.53;10346551;28;20077;-79
2022/01/11 18:48:42;;;;;;;6.68;4.80;;;;;;;-0.04;100.00;100184.91;10359579;28;20058;-79
2022/01/11 18:53:43;;;;;;;7.28;4.90;;;;;;;-0.17;100.00;100180.47;10358323;28;20058;-78
2022/01/11 18:58:46;;;;;;;7.85;4.80;;;;;;;-0.39;100.00;100189.63;10372120;28;20097;-79
2022/01/11 19:03:47;;;;;;;7.97;5.30;;;;;;;-0.67;100.00;100181.91;10358549;28;20058;-79
2022/01/11 19:08:51;;;;;;;6.20;4.43;;;;;;;-0.76;100.00;100193.69;10376510;28;20300;-80
2022/01/11 19:13:55;;;;;;;5.97;4.07;;;;;;;-0.83;100.00;100208.66;10351381;28;20038;-79
2022/01/11 19:18:58;;;;;;;7.82;4.72;;;;;;;-0.86;100.00;100202.78;10380217;28;20041;-81
2022/01/11 19:24:02;;;;;;;8.52;5.28;;;;;;;-0.82;100.00;100208.50;10357930;28;20030;-82
2022/01/11 19:29:04;;;;;;;7.05;4.82;;;;;;;-0.83;100.00;100235.03;10365747;28;20077;-78
2022/01/11 19:34:06;;;;;;;7.80;4.82;;;;;;;-0.74;100.00;100231.19;10367874;28;20137;-80
2022/01/11 19:39:10;;;;;;;8.60;5.90;;;;;;;-0.72;100.00;100242.38;10354174;28;20093;-82
2022/01/11 19:44:19;;;;;;;;;;;;;;;-0.91;100.00;100241.34;10356009;28;20092;-79
2022/01/11 19:49:23;;;;;;;10.90;6.47;;;;;;;-0.90;100.00;100238.50;10357396;28;19992;-80
2022/01/11 19:54:23;;;;;;;8.07;5.68;;;;;;;-0.81;100.00;100259.41;10370029;28;20049;-79
2022/01/11 19:59:24;;;;;;;6.15;5.35;;;;;;;-0.83;100.00;100266.66;10342258;28;20276;-80
2022/01/11 20:04:31;;;;;;;8.13;5.57;;;;;;;-0.83;100.00;100259.56;10380729;28;20058;-81
2022/01/11 20:09:32;;;;;;;8.48;5.10;;;;;;;-0.70;100.00;100269.34;10358329;28;20092;-80
2022/01/11 20:14:34;;;;;;;9.02;6.50;;;;;;;-0.57;100.00;100269.34;10371050;28;20076;-78
2022/01/11 20:19:36;;;;;;;8.32;5.40;;;;;;;-0.70;100.00;100270.16;10372554;28;20065;-79
2022/01/11 20:29:58;;;;;;;8.85;5.70;;;;;;;-0.87;100.00;100264.44;10361589;28;20038;-80
2022/01/11 20:34:58;;;;;;;8.18;6.05;;;;;;;-0.74;100.00;100276.00;10390842;28;20038;-79
2022/01/11 20:40:01;;;;;;;9.05;6.10;;;;;;;-0.71;100.00;100265.91;10376012;28;20126;-78
2022/01/11 20:45:08;;;;;;;8.98;5.43;;;;;;;-0.69;100.00;100271.78;10332119;28;20050;-79
2022/01/11 20:50:57;;;;;;;7.63;5.18;;;;;;;-0.70;100.00;100269.34;10355344;28;20424;-80
2022/01/11 20:55:34;;;;;;;6.93;5.25;;;;;;;-0.66;100.00;100273.19;10351188;28;20130;-80
2022/01/11 21:00:35;;;;;;;6.90;4.60;;;;;;;-0.63;100.00;100286.81;10322408;28;20181;-81
2022/01/11 21:05:42;;;;;;;5.57;4.43;;;;;;;-0.61;100.00;100283.97;10349750;28;20061;-79
2022/01/11 21:10:43;;;;;;;7.65;5.13;;;;;;;-0.53;100.00;100282.97;10334876;28;20054;-79
2022/01/11 21:16:03;;;;;;;7.20;4.72;;;;;;;-0.41;100.00;100283.97;10315777;28;20050;-78
2022/01/11 21:21:05;;;;;;;5.63;4.60;;;;;;;-0.36;100.00;100278.94;10302019;28;20058;-79
2022/01/11 21:26:07;;;;;;;7.72;5.47;;;;;;;-0.33;100.00;100275.88;10339160;28;20076;-79
2022/01/11 21:31:08;;;;;;;6.63;4.47;;;;;;;-0.38;100.00;100273.81;10313133;28;20064;-79
2022/01/11 21:36:09;;;;;;;7.60;4.90;;;;;;;-0.29;100.00;100277.06;10318781;28;20149;-79
2022/01/11 21:41:10;;;;;;;5.93;4.75;;;;;;;-0.30;100.00;100281.53;10340142;28;20784;-79
2022/01/11 21:46:12;;;;;;;5.47;3.80;;;;;;;-0.17;100.00;100264.91;10337057;28;20054;-78
2022/01/11 21:51:13;;;;;;;6.03;4.18;;;;;;;-0.11;100.00;100276.47;10339543;28;20062;-79
2022/01/11 21:56:13;;;;;;;6.75;5.07;;;;;;;-0.12;100.00;100282.78;10328170;28;20062;-77
2022/01/11 22:01:14;;;;;;;6.65;4.72;;;;;;;-0.13;100.00;100289.88;10336942;28;20117;-79
2022/01/11 22:06:15;;;;;;;7.85;5.30;;;;;;;-0.04;100.00;100283.38;10332931;28;20128;-79
2022/01/11 22:11:16;;;;;;;9.38;6.47;;;;;;;-0.28;100.00;100294.53;10308214;28;20066;-79
2022/01/11 22:21:21;;;;;;;9.18;6.53;;;;;;;-0.31;100.00;100305.50;10335656;28;20054;-79
2022/01/11 22:26:22;;;;;;;7.72;5.80;;;;;;;-0.26;100.00;100307.53;10315509;28;20084;-78
2022/01/11 22:31:22;;;;;;;9.50;5.97;;;;;;;-0.27;100.00;100304.09;10328649;28;20146;-77
2022/01/11 22:36:26;;;;;;;8.68;6.32;;;;;;;-0.25;100.00;100314.44;10320933;28;20133;-77
2022/01/11 22:41:27;;;;;;;;;;;;;;;-0.20;100.00;100310.16;10306354;28;20050;-77
2022/01/11 22:46:31;;;;;;;5.38;3.85;;;;;;;-0.09;100.00;100308.75;10282859;28;19953;-78
2022/01/11 22:51:32;;;;;;;4.75;3.47;;;;;;;-0.10;100.00;100301.84;10323022;28;20058;-77
2022/01/11 22:56:32;;;;;;;5.40;4.35;;;;;;;-0.19;100.00;100303.88;10314518;28;20046;-78
2022/01/11 23:01:33;;;;;;;7.53;5.13;;;;;;;-0.21;100.00;100313.81;10344174;28;20062;-78
2022/01/11 23:06:34;;;;;;;6.53;4.00;;;;;;;0.01;100.00;100305.72;10341653;28;20128;-78
2022/01/11 23:11:38;;;;;;;5.38;4.00;;;;;;;-0.10;100.00;100301.84;10282125;28;20068;-78
2022/01/11 23:16:38;;;;;;;6.07;4.30;;;;;;;-0.16;100.00;100298.22;10300097;28;20141;-78
2022/01/11 23:21:39;;;;;;;5.00;3.63;;;;;;;-0.44;100.00;100295.75;10326531;28;20141;-77
2022/01/11 23:26:40;;;;;;;6.30;3.70;;;;;;;-0.55;100.00;100293.69;10331085;28;20572;-78